Private Wetterstation Sandau
Wetterdaten: Samstag, 26.01.2013
Datum Zeit Temp. A. Feuchte A. Luftdruck Regen Wind Richtung Richtung Taupunkt Windchill
26.01.2013 00:01 -9,9 C 86 % 1020,0 hPa 0,0 l/m 1,4 km/h (1 Bft) SO 135 -11,8 C -9,9 C
26.01.2013 00:06 -9,9 C 86 % 1020,1 hPa 0,0 l/m 1,8 km/h (1 Bft) SO 135 -11,8 C -9,9 C
26.01.2013 00:11 -9,9 C 87 % 1019,9 hPa 0,0 l/m 0,0 km/h (0 Bft) SO 135 -11,6 C -9,9 C
26.01.2013 00:16 -10,1 C 86 % 1019,8 hPa 0,0 l/m 1,8 km/h (1 Bft) SO 135 -12,0 C -10,1 C
26.01.2013 00:21 -10,1 C 87 % 1019,8 hPa 0,0 l/m 3,2 km/h (1 Bft) SO 135 -11,8 C -10,1 C
26.01.2013 00:26 -10,2 C 86 % 1019,6 hPa 0,0 l/m 2,9 km/h (1 Bft) SO 135 -12,1 C -10,2 C
26.01.2013 00:31 -10,3 C 86 % 1019,5 hPa 0,0 l/m 0,0 km/h (0 Bft) SO 135 -12,2 C -10,3 C
26.01.2013 00:36 -10,4 C 86 % 1019,4 hPa 0,0 l/m 0,0 km/h (0 Bft) SO 135 -12,3 C -10,4 C
26.01.2013 00:41 -10,5 C 86 % 1019,3 hPa 0,0 l/m 2,2 km/h (1 Bft) SO 135 -12,4 C -10,5 C
26.01.2013 00:46 -10,5 C 86 % 1019,2 hPa 0,0 l/m 1,4 km/h (1 Bft) SO 135 -12,4 C -10,5 C
26.01.2013 00:51 -10,6 C 86 % 1019,2 hPa 0,0 l/m 0,0 km/h (0 Bft) SO 135 -12,5 C -10,6 C
26.01.2013 00:56 -10,6 C 86 % 1019,1 hPa 0,0 l/m 3,6 km/h (1 Bft) S-SO 157 -12,5 C -10,6 C
26.01.2013 01:01 -10,6 C 87 % 1019,1 hPa 0,0 l/m 3,2 km/h (1 Bft) SO 135 -12,3 C -10,6 C
26.01.2013 01:06 -10,6 C 87 % 1019,0 hPa 0,0 l/m 5,8 km/h (2 Bft) SO 135 -12,3 C -14,1 C
26.01.2013 01:11 -10,6 C 87 % 1019,0 hPa 0,0 l/m 3,6 km/h (1 Bft) SO 135 -12,3 C -10,6 C
26.01.2013 01:16 -10,6 C 87 % 1018,9 hPa 0,0 l/m 2,2 km/h (1 Bft) SO 135 -12,3 C -10,6 C
26.01.2013 01:21 -10,6 C 87 % 1018,8 hPa 0,0 l/m 2,2 km/h (1 Bft) SO 135 -12,3 C -10,6 C
26.01.2013 01:26 -10,6 C 87 % 1018,7 hPa 0,0 l/m 0,0 km/h (0 Bft) O-SO 112 -12,3 C -10,6 C
26.01.2013 01:31 -10,7 C 87 % 1018,7 hPa 0,0 l/m 2,2 km/h (1 Bft) SO 135 -12,4 C -10,7 C
26.01.2013 01:36 -10,7 C 87 % 1018,5 hPa 0,0 l/m 2,9 km/h (1 Bft) O 90 -12,4 C -10,7 C
26.01.2013 01:41 -10,7 C 87 % 1018,6 hPa 0,0 l/m 2,2 km/h (1 Bft) O-SO 112 -12,4 C -10,7 C
26.01.2013 01:46 -10,8 C 87 % 1018,4 hPa 0,0 l/m 4,0 km/h (1 Bft) SO 135 -12,5 C -10,8 C
26.01.2013 01:51 -10,8 C 87 % 1018,5 hPa 0,0 l/m 5,8 km/h (2 Bft) O 90 -12,5 C -14,3 C
26.01.2013 01:56 -10,9 C 87 % 1018,5 hPa 0,0 l/m 2,5 km/h (1 Bft) SO 135 -12,6 C -10,9 C
26.01.2013 02:01 -10,9 C 87 % 1018,3 hPa 0,0 l/m 6,5 km/h (2 Bft) SO 135 -12,6 C -14,8 C
26.01.2013 02:06 -10,9 C 87 % 1018,4 hPa 0,0 l/m 3,6 km/h (1 Bft) SO 135 -12,6 C -10,9 C
26.01.2013 02:11 -10,9 C 87 % 1018,5 hPa 0,0 l/m 2,5 km/h (1 Bft) SO 135 -12,6 C -10,9 C
26.01.2013 02:16 -11,0 C 87 % 1018,4 hPa 0,0 l/m 4,0 km/h (1 Bft) O-SO 112 -12,7 C -11,0 C
26.01.2013 02:21 -11,0 C 87 % 1018,5 hPa 0,0 l/m 4,0 km/h (1 Bft) O-SO 112 -12,7 C -11,0 C
26.01.2013 02:26 -11,0 C 87 % 1018,3 hPa 0,0 l/m 5,0 km/h (1 Bft) O 90 -12,7 C -14,1 C
26.01.2013 02:31 -11,1 C 87 % 1018,2 hPa 0,0 l/m 5,0 km/h (1 Bft) SO 135 -12,8 C -14,2 C
26.01.2013 02:36 -11,0 C 87 % 1018,2 hPa 0,0 l/m 4,0 km/h (1 Bft) O-SO 112 -12,7 C -11,0 C
26.01.2013 02:41 -11,0 C 87 % 1018,0 hPa 0,0 l/m 6,5 km/h (2 Bft) S-SO 157 -12,7 C -14,9 C
26.01.2013 02:46 -11,0 C 87 % 1018,1 hPa 0,0 l/m 0,0 km/h (0 Bft) O-SO 112 -12,7 C -11,0 C
26.01.2013 02:51 -11,0 C 87 % 1018,0 hPa 0,0 l/m 2,5 km/h (1 Bft) SO 135 -12,7 C -11,0 C
26.01.2013 02:56 -11,1 C 87 % 1018,3 hPa 0,0 l/m 2,2 km/h (1 Bft) S-SO 157 -12,8 C -11,1 C
26.01.2013 03:01 -11,1 C 87 % 1018,2 hPa 0,0 l/m 4,7 km/h (1 Bft) SO 135 -12,8 C -14,0 C
26.01.2013 03:06 -11,1 C 87 % 1018,1 hPa 0,0 l/m 3,6 km/h (1 Bft) S-SO 157 -12,8 C -11,1 C
26.01.2013 03:11 -11,1 C 87 % 1018,2 hPa 0,0 l/m 4,3 km/h (1 Bft) SO 135 -12,8 C -11,1 C
26.01.2013 03:16 -11,1 C 87 % 1017,9 hPa 0,0 l/m 3,2 km/h (1 Bft) SO 135 -12,8 C -11,1 C
26.01.2013 03:21 -11,1 C 88 % 1017,8 hPa 0,0 l/m 3,6 km/h (1 Bft) S-SO 157 -12,7 C -11,1 C
26.01.2013 03:26 -11,1 C 88 % 1017,5 hPa 0,0 l/m 6,5 km/h (2 Bft) SO 135 -12,7 C -15,1 C
26.01.2013 03:31 -11,2 C 87 % 1017,5 hPa 0,0 l/m 4,0 km/h (1 Bft) O-SO 112 -12,9 C -11,2 C
26.01.2013 03:36 -11,3 C 87 % 1017,3 hPa 0,0 l/m 4,3 km/h (1 Bft) S-SO 157 -13,0 C -11,3 C
26.01.2013 03:41 -11,4 C 87 % 1017,4 hPa 0,0 l/m 4,0 km/h (1 Bft) S-SO 157 -13,1 C -11,4 C
26.01.2013 03:46 -11,5 C 87 % 1017,4 hPa 0,0 l/m 8,3 km/h (2 Bft) SO 135 -13,2 C -16,4 C
26.01.2013 03:51 -11,5 C 87 % 1017,2 hPa 0,0 l/m 7,2 km/h (2 Bft) SO 135 -13,2 C -15,9 C
26.01.2013 03:56 -11,5 C 87 % 1017,1 hPa 0,0 l/m 4,7 km/h (1 Bft) SO 135 -13,2 C -14,4 C
26.01.2013 04:01 -11,4 C 87 % 1017,1 hPa 0,0 l/m 7,2 km/h (2 Bft) SO 135 -13,1 C -15,8 C
26.01.2013 04:06 -11,3 C 87 % 1017,1 hPa 0,0 l/m 7,2 km/h (2 Bft) SO 135 -13,0 C -15,6 C
26.01.2013 04:11 -11,2 C 88 % 1017,1 hPa 0,0 l/m 4,0 km/h (1 Bft) O-SO 112 -12,8 C -11,2 C
26.01.2013 04:16 -11,2 C 88 % 1016,9 hPa 0,0 l/m 5,0 km/h (1 Bft) O-NO 67 -12,8 C -14,3 C
26.01.2013 04:21 -11,1 C 88 % 1017,0 hPa 0,0 l/m 3,6 km/h (1 Bft) SO 135 -12,7 C -11,1 C
26.01.2013 04:26 -11,1 C 88 % 1017,0 hPa 0,0 l/m 5,8 km/h (2 Bft) S-SO 157 -12,7 C -14,7 C
26.01.2013 04:31 -11,1 C 88 % 1017,1 hPa 0,0 l/m 8,3 km/h (2 Bft) S 180 -12,7 C -15,9 C
26.01.2013 04:36 -11,1 C 88 % 1016,8 hPa 0,0 l/m 5,8 km/h (2 Bft) SO 135 -12,7 C -14,7 C
26.01.2013 04:41 -11,1 C 88 % 1016,8 hPa 0,0 l/m 6,8 km/h (2 Bft) SO 135 -12,7 C -15,2 C
26.01.2013 04:46 -11,1 C 88 % 1016,7 hPa 0,0 l/m 5,4 km/h (1 Bft) O-SO 112 -12,7 C -14,4 C
26.01.2013 04:51 -11,1 C 88 % 1016,8 hPa 0,0 l/m 4,0 km/h (1 Bft) S-SO 157 -12,7 C -11,1 C
26.01.2013 04:56 -11,1 C 88 % 1016,9 hPa 0,0 l/m 0,0 km/h (0 Bft) S 180 -12,7 C -11,1 C
26.01.2013 05:01 -11,1 C 88 % 1016,8 hPa 0,0 l/m 0,0 km/h (0 Bft) S-SO 157 -12,7 C -11,1 C
26.01.2013 05:06 -11,1 C 88 % 1016,8 hPa 0,0 l/m 2,2 km/h (1 Bft) S-SO 157 -12,7 C -11,1 C
26.01.2013 05:11 -11,1 C 88 % 1016,8 hPa 0,0 l/m 2,5 km/h (1 Bft) S-SO 157 -12,7 C -11,1 C
26.01.2013 05:16 -11,1 C 88 % 1016,9 hPa 0,0 l/m 0,0 km/h (0 Bft) SO 135 -12,7 C -11,1 C
26.01.2013 05:21 -11,2 C 87 % 1016,9 hPa 0,0 l/m 0,0 km/h (0 Bft) S 180 -12,9 C -11,2 C
26.01.2013 05:26 -11,2 C 87 % 1016,7 hPa 0,0 l/m 2,5 km/h (1 Bft) S 180 -12,9 C -11,2 C
26.01.2013 05:31 -11,2 C 87 % 1016,7 hPa 0,0 l/m 0,0 km/h (0 Bft) S-SO 157 -12,9 C -11,2 C
26.01.2013 05:36 -11,2 C 87 % 1016,5 hPa 0,0 l/m 5,4 km/h (1 Bft) S-SO 157 -12,9 C -14,5 C
26.01.2013 05:41 -11,1 C 87 % 1016,6 hPa 0,0 l/m 0,0 km/h (0 Bft) S-SO 157 -12,8 C -11,1 C
26.01.2013 05:46 -11,1 C 87 % 1016,6 hPa 0,0 l/m 2,9 km/h (1 Bft) S-SO 157 -12,8 C -11,1 C
26.01.2013 05:51 -11,1 C 87 % 1016,5 hPa 0,0 l/m 3,6 km/h (1 Bft) S-SO 157 -12,8 C -11,1 C
26.01.2013 05:56 -11,1 C 87 % 1016,4 hPa 0,0 l/m 3,2 km/h (1 Bft) S-SO 157 -12,8 C -11,1 C
26.01.2013 06:01 -11,1 C 87 % 1016,5 hPa 0,0 l/m 2,2 km/h (1 Bft) S-SO 157 -12,8 C -11,1 C
26.01.2013 06:06 -11,1 C 87 % 1016,4 hPa 0,0 l/m 1,8 km/h (1 Bft) SO 135 -12,8 C -11,1 C
26.01.2013 06:11 -11,1 C 87 % 1016,5 hPa 0,0 l/m 3,2 km/h (1 Bft) SO 135 -12,8 C -11,1 C
26.01.2013 06:16 -11,1 C 87 % 1016,3 hPa 0,0 l/m 5,4 km/h (1 Bft) S-SO 157 -12,8 C -14,4 C
26.01.2013 06:21 -11,1 C 87 % 1016,3 hPa 0,0 l/m 1,8 km/h (1 Bft) S-SO 157 -12,8 C -11,1 C
26.01.2013 06:26 -11,1 C 87 % 1016,3 hPa 0,0 l/m 6,5 km/h (2 Bft) SO 135 -12,8 C -15,1 C
26.01.2013 06:31 -11,1 C 87 % 1016,3 hPa 0,0 l/m 2,5 km/h (1 Bft) SO 135 -12,8 C -11,1 C
26.01.2013 06:36 -11,2 C 87 % 1016,3 hPa 0,0 l/m 2,2 km/h (1 Bft) O 90 -12,9 C -11,2 C
26.01.2013 06:41 -11,3 C 86 % 1016,2 hPa 0,0 l/m 0,0 km/h (0 Bft) S-SO 157 -13,2 C -11,3 C
26.01.2013 06:46 -11,3 C 86 % 1016,3 hPa 0,0 l/m 5,0 km/h (1 Bft) SO 135 -13,2 C -14,4 C
26.01.2013 06:51 -11,4 C 86 % 1016,0 hPa 0,0 l/m 4,3 km/h (1 Bft) SO 135 -13,3 C -11,4 C
26.01.2013 06:56 -11,4 C 86 % 1016,1 hPa 0,0 l/m 3,6 km/h (1 Bft) S-SO 157 -13,3 C -11,4 C
26.01.2013 07:01 -11,5 C 86 % 1016,2 hPa 0,0 l/m 5,8 km/h (2 Bft) SO 135 -13,4 C -15,1 C
26.01.2013 07:06 -11,5 C 86 % 1016,3 hPa 0,0 l/m 4,0 km/h (1 Bft) S 180 -13,4 C -11,5 C
26.01.2013 07:11 -11,5 C 86 % 1016,2 hPa 0,0 l/m 0,0 km/h (0 Bft) S-SO 157 -13,4 C -11,5 C
26.01.2013 07:16 -11,5 C 86 % 1016,0 hPa 0,0 l/m 3,2 km/h (1 Bft) SO 135 -13,4 C -11,5 C
26.01.2013 07:21 -11,5 C 86 % 1016,1 hPa 0,0 l/m 1,8 km/h (1 Bft) SO 135 -13,4 C -11,5 C
26.01.2013 07:26 -11,6 C 86 % 1016,1 hPa 0,0 l/m 4,7 km/h (1 Bft) SO 135 -13,5 C -14,5 C
26.01.2013 07:31 -11,6 C 86 % 1016,1 hPa 0,0 l/m 7,6 km/h (2 Bft) SO 135 -13,5 C -16,2 C
26.01.2013 07:36 -11,6 C 86 % 1016,1 hPa 0,0 l/m 7,2 km/h (2 Bft) SO 135 -13,5 C -16,0 C
26.01.2013 07:41 -11,7 C 86 % 1016,0 hPa 0,0 l/m 3,6 km/h (1 Bft) SO 135 -13,6 C -11,7 C
26.01.2013 07:46 -11,7 C 86 % 1015,9 hPa 0,0 l/m 2,2 km/h (1 Bft) SO 135 -13,6 C -11,7 C
26.01.2013 07:51 -11,8 C 86 % 1016,0 hPa 0,0 l/m 6,1 km/h (2 Bft) S-SO 157 -13,7 C -15,6 C
26.01.2013 07:56 -11,8 C 86 % 1016,0 hPa 0,0 l/m 3,6 km/h (1 Bft) SO 135 -13,7 C -11,8 C
26.01.2013 08:01 -11,9 C 86 % 1015,9 hPa 0,0 l/m 4,7 km/h (1 Bft) SO 135 -13,8 C -14,9 C
26.01.2013 08:06 -11,9 C 86 % 1016,0 hPa 0,0 l/m 5,4 km/h (1 Bft) O-SO 112 -13,8 C -15,3 C
26.01.2013 08:11 -11,9 C 86 % 1015,9 hPa 0,0 l/m 8,3 km/h (2 Bft) SO 135 -13,8 C -16,8 C
26.01.2013 08:16 -11,9 C 86 % 1015,7 hPa 0,0 l/m 5,0 km/h (1 Bft) S-SO 157 -13,8 C -15,1 C
26.01.2013 08:21 -12,1 C 86 % 1015,7 hPa 0,0 l/m 5,4 km/h (1 Bft) O-SO 112 -13,9 C -15,6 C
26.01.2013 08:26 -12,1 C 86 % 1015,7 hPa 0,0 l/m 5,0 km/h (1 Bft) S-SO 157 -13,9 C -15,3 C
26.01.2013 08:31 -12,1 C 86 % 1015,7 hPa 0,0 l/m 8,6 km/h (2 Bft) SO 135 -13,9 C -17,2 C
26.01.2013 08:36 -12,1 C 86 % 1015,6 hPa 0,0 l/m 4,7 km/h (1 Bft) S-SO 157 -13,9 C -15,1 C
26.01.2013 08:41 -11,9 C 86 % 1015,7 hPa 0,0 l/m 12,6 km/h (3 Bft) SO 135 -13,8 C -18,4 C
26.01.2013 08:46 -11,8 C 86 % 1015,5 hPa 0,0 l/m 6,1 km/h (2 Bft) S-SO 157 -13,7 C -15,6 C
26.01.2013 08:51 -11,7 C 86 % 1015,8 hPa 0,0 l/m 8,3 km/h (2 Bft) O-SO 112 -13,6 C -16,6 C
26.01.2013 08:56 -11,6 C 86 % 1015,9 hPa 0,0 l/m 2,9 km/h (1 Bft) SO 135 -13,5 C -11,6 C
26.01.2013 09:01 -11,4 C 86 % 1015,9 hPa 0,0 l/m 5,8 km/h (2 Bft) O-SO 112 -13,3 C -15,0 C
26.01.2013 09:06 -11,1 C 86 % 1015,7 hPa 0,0 l/m 2,2 km/h (1 Bft) SO 135 -13,0 C -11,1 C
26.01.2013 09:11 -11,0 C 86 % 1015,7 hPa 0,0 l/m 2,9 km/h (1 Bft) SO 135 -12,9 C -11,0 C
26.01.2013 09:16 -10,8 C 86 % 1015,7 hPa 0,0 l/m 6,5 km/h (2 Bft) O 90 -12,7 C -14,7 C
26.01.2013 09:21 -10,6 C 86 % 1015,7 hPa 0,0 l/m 10,4 km/h (2 Bft) SO 135 -12,5 C -16,1 C
26.01.2013 09:26 -10,5 C 86 % 1015,6 hPa 0,0 l/m 6,5 km/h (2 Bft) O-SO 112 -12,4 C -14,4 C
26.01.2013 09:31 -10,4 C 86 % 1015,6 hPa 0,0 l/m 5,0 km/h (1 Bft) SO 135 -12,3 C -13,4 C
26.01.2013 09:36 -10,2 C 86 % 1015,3 hPa 0,0 l/m 4,3 km/h (1 Bft) O 90 -12,1 C -10,2 C
26.01.2013 09:41 -10,1 C 86 % 1015,3 hPa 0,0 l/m 10,1 km/h (2 Bft) SO 135 -12,0 C -15,4 C
26.01.2013 09:46 -10,1 C 86 % 1015,4 hPa 0,0 l/m 2,5 km/h (1 Bft) SO 135 -12,0 C -10,1 C
26.01.2013 09:51 -9,9 C 86 % 1015,4 hPa 0,0 l/m 2,2 km/h (1 Bft) S-SO 157 -11,8 C -9,9 C
26.01.2013 09:56 -9,6 C 86 % 1015,4 hPa 0,0 l/m 1,8 km/h (1 Bft) S-SO 157 -11,5 C -9,6 C
26.01.2013 10:01 -9,5 C 86 % 1015,3 hPa 0,0 l/m 9,7 km/h (2 Bft) SO 135 -11,4 C -14,6 C
26.01.2013 10:06 -9,2 C 86 % 1015,4 hPa 0,0 l/m 5,0 km/h (1 Bft) S-SO 157 -11,1 C -12,0 C
26.01.2013 10:11 -9,1 C 86 % 1015,3 hPa 0,0 l/m 10,8 km/h (2 Bft) SO 135 -11,0 C -14,5 C
26.01.2013 10:16 -9,1 C 86 % 1015,4 hPa 0,0 l/m 6,1 km/h (2 Bft) S-SO 157 -11,0 C -12,5 C
26.01.2013 10:21 -8,9 C 86 % 1015,4 hPa 0,0 l/m 13,7 km/h (3 Bft) SO 135 -10,8 C -15,1 C
26.01.2013 10:26 -8,8 C 86 % 1015,4 hPa 0,0 l/m 15,5 km/h (3 Bft) O-SO 112 -10,7 C -15,4 C
26.01.2013 10:31 -8,6 C 86 % 1015,3 hPa 0,0 l/m 13,7 km/h (3 Bft) SO 135 -10,5 C -14,7 C
26.01.2013 10:36 -8,4 C 86 % 1015,3 hPa 0,0 l/m 1,4 km/h (1 Bft) SO 135 -10,3 C -8,4 C
26.01.2013 10:41 -8,4 C 86 % 1015,4 hPa 0,0 l/m 9,7 km/h (2 Bft) S-SO 157 -10,3 C -13,2 C
26.01.2013 10:46 -8,1 C 86 % 1015,4 hPa 0,0 l/m 9,0 km/h (2 Bft) SO 135 -10,0 C -12,6 C
26.01.2013 10:51 -8,1 C 86 % 1015,3 hPa 0,0 l/m 5,8 km/h (2 Bft) SO 135 -10,0 C -11,2 C
26.01.2013 10:56 -7,9 C 85 % 1015,4 hPa 0,0 l/m 5,8 km/h (2 Bft) SO 135 -10,0 C -11,0 C
26.01.2013 11:01 -7,7 C 85 % 1015,3 hPa 0,0 l/m 4,3 km/h (1 Bft) O-SO 112 -9,8 C -7,7 C
26.01.2013 11:06 -7,6 C 85 % 1015,1 hPa 0,0 l/m 6,5 km/h (2 Bft) O-SO 112 -9,7 C -11,0 C
26.01.2013 11:11 -7,4 C 85 % 1015,3 hPa 0,0 l/m 5,0 km/h (1 Bft) SO 135 -9,5 C -10,0 C
26.01.2013 11:16 -7,3 C 85 % 1015,0 hPa 0,0 l/m 6,5 km/h (2 Bft) O-SO 112 -9,4 C -10,7 C
26.01.2013 11:21 -7,2 C 85 % 1015,0 hPa 0,0 l/m 5,8 km/h (2 Bft) O-NO 67 -9,3 C -10,2 C
26.01.2013 11:26 -7,2 C 85 % 1015,1 hPa 0,0 l/m 3,2 km/h (1 Bft) O-SO 112 -9,3 C -7,2 C
26.01.2013 11:31 -7,1 C 85 % 1014,8 hPa 0,0 l/m 9,0 km/h (2 Bft) SO 135 -9,2 C -11,5 C
26.01.2013 11:36 -7,0 C 85 % 1014,9 hPa 0,0 l/m 3,6 km/h (1 Bft) O-NO 67 -9,1 C -7,0 C
26.01.2013 11:41 -6,9 C 85 % 1015,0 hPa 0,0 l/m 9,7 km/h (2 Bft) O-SO 112 -9,0 C -11,5 C
26.01.2013 11:46 -6,8 C 85 % 1014,8 hPa 0,0 l/m 7,2 km/h (2 Bft) SO 135 -8,9 C -10,4 C
26.01.2013 11:51 -6,5 C 85 % 1014,8 hPa 0,0 l/m 7,9 km/h (2 Bft) S-SO 157 -8,6 C -10,3 C
26.01.2013 11:56 -6,2 C 85 % 1014,6 hPa 0,0 l/m 8,3 km/h (2 Bft) S-SO 157 -8,3 C -10,1 C
26.01.2013 12:01 -5,9 C 85 % 1014,7 hPa 0,0 l/m 5,4 km/h (1 Bft) S 180 -8,0 C -8,5 C
26.01.2013 12:06 -5,7 C 85 % 1014,6 hPa 0,0 l/m 21,2 km/h (4 Bft) SO 135 -7,8 C -12,6 C
26.01.2013 12:11 -5,6 C 84 % 1014,7 hPa 0,0 l/m 14,4 km/h (3 Bft) SO 135 -7,9 C -11,2 C
26.01.2013 12:16 -5,6 C 84 % 1014,7 hPa 0,0 l/m 9,7 km/h (2 Bft) SO 135 -7,9 C -9,9 C
26.01.2013 12:21 -5,4 C 84 % 1014,7 hPa 0,0 l/m 13,0 km/h (3 Bft) S 180 -7,7 C -10,6 C
26.01.2013 12:26 -5,2 C 83 % 1014,7 hPa 0,0 l/m 7,6 km/h (2 Bft) S-SO 157 -7,6 C -8,7 C
26.01.2013 12:31 -5,1 C 83 % 1014,7 hPa 0,0 l/m 3,6 km/h (1 Bft) S-SO 157 -7,5 C -5,1 C
26.01.2013 12:36 -5,1 C 83 % 1014,7 hPa 0,0 l/m 6,1 km/h (2 Bft) SO 135 -7,5 C -7,9 C
26.01.2013 12:41 -5,1 C 82 % 1014,6 hPa 0,0 l/m 9,4 km/h (2 Bft) S-SO 157 -7,7 C -9,2 C
26.01.2013 12:46 -5,0 C 82 % 1014,5 hPa 0,0 l/m 5,0 km/h (1 Bft) S 180 -7,6 C -7,3 C
26.01.2013 12:51 -5,0 C 82 % 1014,3 hPa 0,0 l/m 7,2 km/h (2 Bft) SO 135 -7,6 C -8,3 C
26.01.2013 12:56 -5,1 C 82 % 1014,3 hPa 0,0 l/m 1,8 km/h (1 Bft) O-SO 112 -7,7 C -5,1 C
26.01.2013 13:01 -5,1 C 82 % 1014,4 hPa 0,0 l/m 8,6 km/h (2 Bft) SO 135 -7,7 C -8,9 C
26.01.2013 13:06 -5,0 C 82 % 1014,5 hPa 0,0 l/m 9,7 km/h (2 Bft) SO 135 -7,6 C -9,2 C
26.01.2013 13:11 -5,0 C 82 % 1014,5 hPa 0,0 l/m 4,3 km/h (1 Bft) SO 135 -7,6 C -5,0 C
26.01.2013 13:16 -4,9 C 82 % 1014,5 hPa 0,0 l/m 9,0 km/h (2 Bft) SO 135 -7,5 C -8,8 C
26.01.2013 13:21 -4,7 C 82 % 1014,5 hPa 0,0 l/m 6,8 km/h (2 Bft) SO 135 -7,3 C -7,8 C
26.01.2013 13:26 -4,6 C 82 % 1014,3 hPa 0,0 l/m 4,7 km/h (1 Bft) S-SO 157 -7,2 C -6,6 C
26.01.2013 13:31 -4,5 C 82 % 1014,2 hPa 0,0 l/m 13,7 km/h (3 Bft) SO 135 -7,1 C -9,7 C
26.01.2013 13:36 -4,4 C 81 % 1014,1 hPa 0,0 l/m 3,6 km/h (1 Bft) S-SO 157 -7,2 C -4,4 C
26.01.2013 13:41 -4,2 C 82 % 1014,1 hPa 0,0 l/m 0,0 km/h (0 Bft) S 180 -6,8 C -4,2 C
26.01.2013 13:46 -4,1 C 82 % 1013,9 hPa 0,0 l/m 6,1 km/h (2 Bft) S-SO 157 -6,7 C -6,8 C
26.01.2013 13:51 -4,1 C 81 % 1013,9 hPa 0,0 l/m 17,3 km/h (3 Bft) S 180 -6,9 C -9,9 C
26.01.2013 13:56 -4,1 C 81 % 1014,0 hPa 0,0 l/m 8,3 km/h (2 Bft) S-SO 157 -6,9 C -7,7 C
26.01.2013 14:01 -4,1 C 81 % 1013,9 hPa 0,0 l/m 4,3 km/h (1 Bft) S-SO 157 -6,9 C -4,1 C
26.01.2013 14:06 -4,1 C 81 % 1014,0 hPa 0,0 l/m 8,6 km/h (2 Bft) SO 135 -6,9 C -7,8 C
26.01.2013 14:11 -4,1 C 81 % 1013,9 hPa 0,0 l/m 10,1 km/h (2 Bft) S 180 -6,9 C -8,2 C
26.01.2013 14:16 -4,1 C 81 % 1013,9 hPa 0,0 l/m 7,6 km/h (2 Bft) S 180 -6,9 C -7,4 C
26.01.2013 14:21 -4,1 C 81 % 1013,9 hPa 0,0 l/m 14,8 km/h (3 Bft) S 180 -6,9 C -9,4 C
26.01.2013 14:26 -4,2 C 81 % 1013,6 hPa 0,0 l/m 8,6 km/h (2 Bft) SO 135 -7,0 C -7,9 C
26.01.2013 14:31 -4,1 C 81 % 1013,6 hPa 0,0 l/m 14,8 km/h (3 Bft) S-SO 157 -6,9 C -9,4 C
26.01.2013 14:36 -4,1 C 81 % 1013,5 hPa 0,0 l/m 10,4 km/h (2 Bft) S-SW 202 -6,9 C -8,3 C
26.01.2013 14:41 -4,1 C 81 % 1013,4 hPa 0,0 l/m 4,0 km/h (1 Bft) SO 135 -6,9 C -4,1 C
26.01.2013 14:46 -4,0 C 81 % 1013,2 hPa 0,0 l/m 4,0 km/h (1 Bft) S-SO 157 -6,8 C -4,0 C
26.01.2013 14:51 -3,9 C 81 % 1013,2 hPa 0,0 l/m 9,0 km/h (2 Bft) SO 135 -6,7 C -7,7 C
26.01.2013 14:56 -4,1 C 81 % 1013,2 hPa 0,0 l/m 2,9 km/h (1 Bft) S 180 -6,9 C -4,1 C
26.01.2013 15:01 -4,1 C 80 % 1013,1 hPa 0,0 l/m 10,1 km/h (2 Bft) S-SO 157 -7,0 C -8,2 C
26.01.2013 15:06 -4,1 C 80 % 1013,1 hPa 0,0 l/m 9,4 km/h (2 Bft) S-SW 202 -7,0 C -8,0 C
26.01.2013 15:11 -4,2 C 80 % 1013,1 hPa 0,0 l/m 7,6 km/h (2 Bft) SO 135 -7,1 C -7,5 C
26.01.2013 15:16 -4,4 C 80 % 1013,1 hPa 0,0 l/m 9,7 km/h (2 Bft) SO 135 -7,3 C -8,5 C
26.01.2013 15:21 -4,6 C 80 % 1012,8 hPa 0,0 l/m 5,8 km/h (2 Bft) S-SO 157 -7,5 C -7,2 C
26.01.2013 15:26 -4,7 C 80 % 1012,8 hPa 0,0 l/m 6,1 km/h (2 Bft) S-SO 157 -7,6 C -7,5 C
26.01.2013 15:31 -4,8 C 81 % 1012,7 hPa 0,0 l/m 4,3 km/h (1 Bft) S 180 -7,5 C -4,8 C
26.01.2013 15:36 -4,9 C 81 % 1012,7 hPa 0,0 l/m 7,9 km/h (2 Bft) SO 135 -7,6 C -8,5 C
26.01.2013 15:41 -5,0 C 81 % 1012,5 hPa 0,0 l/m 6,1 km/h (2 Bft) SO 135 -7,7 C -7,8 C
26.01.2013 15:46 -5,1 C 81 % 1012,6 hPa 0,0 l/m 7,6 km/h (2 Bft) SO 135 -7,8 C -8,6 C
26.01.2013 15:51 -5,1 C 82 % 1012,4 hPa 0,0 l/m 9,0 km/h (2 Bft) S 180 -7,7 C -9,1 C
26.01.2013 15:56 -5,1 C 82 % 1012,3 hPa 0,0 l/m 14,8 km/h (3 Bft) S-SO 157 -7,7 C -10,7 C
26.01.2013 16:01 -5,2 C 82 % 1012,4 hPa 0,0 l/m 7,6 km/h (2 Bft) SO 135 -7,8 C -8,7 C
26.01.2013 16:06 -5,3 C 82 % 1012,4 hPa 0,0 l/m 8,6 km/h (2 Bft) S-SW 202 -7,9 C -9,2 C
26.01.2013 16:11 -5,4 C 82 % 1012,3 hPa 0,0 l/m 2,9 km/h (1 Bft) SO 135 -8,0 C -5,4 C
26.01.2013 16:16 -5,4 C 82 % 1012,2 hPa 0,0 l/m 7,6 km/h (2 Bft) SO 135 -8,0 C -8,9 C
26.01.2013 16:21 -5,5 C 82 % 1012,3 hPa 0,0 l/m 6,1 km/h (2 Bft) S-SO 157 -8,1 C -8,4 C
26.01.2013 16:26 -5,6 C 82 % 1012,2 hPa 0,0 l/m 6,1 km/h (2 Bft) SO 135 -8,2 C -8,5 C
26.01.2013 16:31 -5,6 C 82 % 1012,1 hPa 0,0 l/m 14,4 km/h (3 Bft) SO 135 -8,2 C -11,2 C
26.01.2013 16:36 -5,7 C 82 % 1012,2 hPa 0,0 l/m 5,0 km/h (1 Bft) S 180 -8,3 C -8,1 C
26.01.2013 16:41 -5,8 C 82 % 1012,1 hPa 0,0 l/m 5,0 km/h (1 Bft) SO 135 -8,4 C -8,2 C
26.01.2013 16:46 -5,9 C 83 % 1012,2 hPa 0,0 l/m 13,7 km/h (3 Bft) SO 135 -8,3 C -11,4 C
26.01.2013 16:51 -6,1 C 83 % 1012,2 hPa 0,0 l/m 4,0 km/h (1 Bft) S-SO 157 -8,5 C -6,1 C
26.01.2013 16:56 -6,1 C 83 % 1012,2 hPa 0,0 l/m 7,2 km/h (2 Bft) SO 135 -8,5 C -9,6 C
26.01.2013 17:01 -6,2 C 83 % 1012,4 hPa 0,0 l/m 6,5 km/h (2 Bft) SO 135 -8,6 C -9,4 C
26.01.2013 17:06 -6,2 C 83 % 1012,2 hPa 0,0 l/m 5,4 km/h (1 Bft) SO 135 -8,6 C -8,8 C
26.01.2013 17:11 -6,4 C 83 % 1012,2 hPa 0,0 l/m 4,0 km/h (1 Bft) SO 135 -8,8 C -6,4 C
26.01.2013 17:16 -6,4 C 83 % 1012,4 hPa 0,0 l/m 2,2 km/h (1 Bft) SO 135 -8,8 C -6,4 C
26.01.2013 17:21 -6,5 C 83 % 1012,6 hPa 0,0 l/m 4,0 km/h (1 Bft) S 180 -8,9 C -6,5 C
26.01.2013 17:26 -6,5 C 83 % 1012,7 hPa 0,0 l/m 7,6 km/h (2 Bft) S-SO 157 -8,9 C -10,2 C
26.01.2013 17:31 -6,6 C 83 % 1012,2 hPa 0,0 l/m 3,2 km/h (1 Bft) S-SO 157 -9,0 C -6,6 C
26.01.2013 17:36 -6,6 C 84 % 1012,3 hPa 0,0 l/m 2,9 km/h (1 Bft) SO 135 -8,8 C -6,6 C
26.01.2013 17:41 -6,6 C 84 % 1012,4 hPa 0,0 l/m 0,0 km/h (0 Bft) SO 135 -8,8 C -6,6 C
26.01.2013 17:46 -6,7 C 84 % 1012,4 hPa 0,0 l/m 5,0 km/h (1 Bft) SO 135 -8,9 C -9,2 C
26.01.2013 17:51 -6,7 C 84 % 1012,2 hPa 0,0 l/m 2,2 km/h (1 Bft) SO 135 -8,9 C -6,7 C
26.01.2013 17:56 -6,7 C 84 % 1012,5 hPa 0,0 l/m 3,6 km/h (1 Bft) SO 135 -8,9 C -6,7 C
26.01.2013 18:01 -6,7 C 84 % 1012,7 hPa 0,0 l/m 1,8 km/h (1 Bft) S-SO 157 -8,9 C -6,7 C
26.01.2013 18:06 -6,6 C 84 % 1012,7 hPa 0,0 l/m 3,6 km/h (1 Bft) SO 135 -8,8 C -6,6 C
26.01.2013 18:11 -6,6 C 84 % 1012,5 hPa 0,0 l/m 6,5 km/h (2 Bft) S-SO 157 -8,8 C -9,9 C
26.01.2013 18:16 -6,6 C 85 % 1012,4 hPa 0,0 l/m 7,2 km/h (2 Bft) S-SO 157 -8,7 C -10,2 C
26.01.2013 18:21 -6,6 C 85 % 1012,2 hPa 0,0 l/m 2,5 km/h (1 Bft) SO 135 -8,7 C -6,6 C
26.01.2013 18:26 -6,6 C 85 % 1012,3 hPa 0,0 l/m 4,7 km/h (1 Bft) S-SO 157 -8,7 C -8,9 C
26.01.2013 18:31 -6,6 C 85 % 1012,2 hPa 0,0 l/m 6,1 km/h (2 Bft) O-SO 112 -8,7 C -9,7 C
26.01.2013 18:36 -6,5 C 85 % 1012,0 hPa 0,0 l/m 2,9 km/h (1 Bft) S-SO 157 -8,6 C -6,5 C
26.01.2013 18:41 -6,5 C 85 % 1012,1 hPa 0,0 l/m 3,6 km/h (1 Bft) SO 135 -8,6 C -6,5 C
26.01.2013 18:46 -6,5 C 85 % 1012,1 hPa 0,0 l/m 4,0 km/h (1 Bft) SO 135 -8,6 C -6,5 C
26.01.2013 18:51 -6,5 C 85 % 1012,0 hPa 0,0 l/m 6,1 km/h (2 Bft) SO 135 -8,6 C -9,5 C
26.01.2013 18:56 -6,4 C 85 % 1012,1 hPa 0,0 l/m 7,2 km/h (2 Bft) S-SO 157 -8,5 C -9,9 C
26.01.2013 19:01 -6,4 C 85 % 1011,9 hPa 0,0 l/m 2,5 km/h (1 Bft) SO 135 -8,5 C -6,4 C
26.01.2013 19:06 -6,4 C 86 % 1011,9 hPa 0,0 l/m 4,0 km/h (1 Bft) SO 135 -8,3 C -6,4 C
26.01.2013 19:11 -6,2 C 86 % 1011,8 hPa 0,0 l/m 7,9 km/h (2 Bft) S-SO 157 -8,1 C -10,0 C
26.01.2013 19:16 -6,2 C 86 % 1011,8 hPa 0,0 l/m 6,5 km/h (2 Bft) S-SO 157 -8,1 C -9,4 C
26.01.2013 19:21 -6,2 C 86 % 1011,7 hPa 0,0 l/m 2,9 km/h (1 Bft) SO 135 -8,1 C -6,2 C
26.01.2013 19:26 -6,1 C 85 % 1011,7 hPa 0,0 l/m 2,5 km/h (1 Bft) S-SW 202 -8,2 C -6,1 C
26.01.2013 19:31 -6,1 C 85 % 1011,6 hPa 0,0 l/m 5,0 km/h (1 Bft) S-SO 157 -8,2 C -8,5 C
26.01.2013 19:36 -6,1 C 85 % 1011,6 hPa 0,0 l/m 3,6 km/h (1 Bft) SO 135 -8,2 C -6,1 C
26.01.2013 19:41 -6,1 C 85 % 1011,6 hPa 0,0 l/m 8,6 km/h (2 Bft) S-SW 202 -8,2 C -10,1 C
26.01.2013 19:46 -5,9 C 85 % 1011,6 hPa 0,0 l/m 6,8 km/h (2 Bft) S-SO 157 -8,0 C -9,2 C
26.01.2013 19:51 -5,9 C 85 % 1011,8 hPa 0,0 l/m 4,7 km/h (1 Bft) S 180 -8,0 C -8,1 C
26.01.2013 19:56 -5,9 C 85 % 1011,7 hPa 0,0 l/m 3,6 km/h (1 Bft) S-SW 202 -8,0 C -5,9 C
26.01.2013 20:01 -5,8 C 85 % 1011,7 hPa 0,0 l/m 5,0 km/h (1 Bft) S 180 -7,9 C -8,2 C
26.01.2013 20:06 -5,8 C 85 % 1011,7 hPa 0,0 l/m 6,5 km/h (2 Bft) S-SO 157 -7,9 C -8,9 C
26.01.2013 20:11 -5,8 C 85 % 1011,7 hPa 0,0 l/m 4,0 km/h (1 Bft) S-SO 157 -7,9 C -5,8 C
26.01.2013 20:16 -5,7 C 85 % 1011,7 hPa 0,0 l/m 4,7 km/h (1 Bft) O 90 -7,8 C -7,9 C
26.01.2013 20:21 -5,6 C 85 % 1011,7 hPa 0,0 l/m 5,8 km/h (2 Bft) S-SW 202 -7,7 C -8,4 C
26.01.2013 20:26 -5,6 C 85 % 1011,5 hPa 0,0 l/m 5,8 km/h (2 Bft) SO 135 -7,7 C -8,4 C
26.01.2013 20:31 -5,6 C 85 % 1011,6 hPa 0,0 l/m 5,0 km/h (1 Bft) SO 135 -7,7 C -7,9 C
26.01.2013 20:36 -5,6 C 85 % 1011,4 hPa 0,0 l/m 6,5 km/h (2 Bft) S-SW 202 -7,7 C -8,7 C
26.01.2013 20:41 -5,5 C 85 % 1011,3 hPa 0,0 l/m 6,5 km/h (2 Bft) S-SO 157 -7,6 C -8,6 C
26.01.2013 20:46 -5,5 C 85 % 1011,3 hPa 0,0 l/m 3,2 km/h (1 Bft) S-SO 157 -7,6 C -5,5 C
26.01.2013 20:51 -5,5 C 85 % 1011,2 hPa 0,0 l/m 3,6 km/h (1 Bft) S 180 -7,6 C -5,5 C
26.01.2013 20:56 -5,4 C 85 % 1011,2 hPa 0,0 l/m 7,6 km/h (2 Bft) SO 135 -7,5 C -8,9 C
26.01.2013 21:01 -5,4 C 85 % 1011,3 hPa 0,0 l/m 7,2 km/h (2 Bft) W-SW 247 -7,5 C -8,8 C
26.01.2013 21:06 -5,4 C 85 % 1011,2 hPa 0,0 l/m 3,2 km/h (1 Bft) SW 225 -7,5 C -5,4 C
26.01.2013 21:11 -5,4 C 85 % 1011,2 hPa 0,0 l/m 6,1 km/h (2 Bft) W-SW 247 -7,5 C -8,3 C
26.01.2013 21:16 -5,4 C 85 % 1011,1 hPa 0,0 l/m 6,5 km/h (2 Bft) SO 135 -7,5 C -8,5 C
26.01.2013 21:21 -5,3 C 85 % 1011,1 hPa 0,0 l/m 3,6 km/h (1 Bft) S-SW 202 -7,4 C -5,3 C
26.01.2013 21:26 -5,2 C 85 % 1011,2 hPa 0,0 l/m 4,7 km/h (1 Bft) SW 225 -7,3 C -7,3 C
26.01.2013 21:31 -5,1 C 85 % 1011,2 hPa 0,0 l/m 4,0 km/h (1 Bft) S-SW 202 -7,2 C -5,1 C
26.01.2013 21:36 -5,0 C 85 % 1011,2 hPa 0,0 l/m 4,0 km/h (1 Bft) SO 135 -7,1 C -5,0 C
26.01.2013 21:41 -4,9 C 86 % 1011,3 hPa 0,0 l/m 5,8 km/h (2 Bft) W-SW 247 -6,9 C -7,6 C
26.01.2013 21:46 -4,8 C 86 % 1011,5 hPa 0,0 l/m 5,8 km/h (2 Bft) S 180 -6,8 C -7,4 C
26.01.2013 21:51 -4,7 C 86 % 1011,3 hPa 0,0 l/m 8,6 km/h (2 Bft) SW 225 -6,7 C -8,5 C
26.01.2013 21:56 -4,7 C 86 % 1011,3 hPa 0,0 l/m 6,1 km/h (2 Bft) S-SW 202 -6,7 C -7,5 C
26.01.2013 22:01 -4,6 C 86 % 1011,3 hPa 0,0 l/m 8,3 km/h (2 Bft) S-SW 202 -6,6 C -8,2 C
26.01.2013 22:06 -4,5 C 86 % 1011,2 hPa 0,0 l/m 7,2 km/h (2 Bft) W-SW 247 -6,5 C -7,7 C
26.01.2013 22:11 -4,4 C 86 % 1011,2 hPa 0,0 l/m 3,2 km/h (1 Bft) S-SO 157 -6,4 C -4,4 C
26.01.2013 22:16 -4,4 C 87 % 1011,0 hPa 0,0 l/m 6,1 km/h (2 Bft) S 180 -6,2 C -7,1 C
26.01.2013 22:21 -4,2 C 87 % 1010,9 hPa 0,0 l/m 6,8 km/h (2 Bft) SW 225 -6,0 C -7,2 C
26.01.2013 22:26 -4,2 C 87 % 1010,8 hPa 0,0 l/m 10,4 km/h (2 Bft) SW 225 -6,0 C -8,5 C
26.01.2013 22:31 -4,2 C 87 % 1010,7 hPa 0,0 l/m 13,7 km/h (3 Bft) S-SW 202 -6,0 C -9,3 C
26.01.2013 22:36 -4,1 C 87 % 1010,7 hPa 0,0 l/m 3,6 km/h (1 Bft) S 180 -5,9 C -4,1 C
26.01.2013 22:41 -4,1 C 87 % 1010,9 hPa 0,0 l/m 11,2 km/h (2 Bft) W-SW 247 -5,9 C -8,6 C
26.01.2013 22:46 -4,1 C 87 % 1010,9 hPa 0,0 l/m 7,2 km/h (2 Bft) S 180 -5,9 C -7,3 C
26.01.2013 22:51 -4,0 C 88 % 1010,7 hPa 0,0 l/m 4,0 km/h (1 Bft) W-SW 247 -5,7 C -4,0 C
26.01.2013 22:56 -3,9 C 88 % 1010,7 hPa 0,0 l/m 8,6 km/h (2 Bft) S 180 -5,6 C -7,5 C
26.01.2013 23:01 -3,9 C 88 % 1010,5 hPa 0,0 l/m 4,0 km/h (1 Bft) S-SW 202 -5,6 C -3,9 C
26.01.2013 23:06 -3,9 C 88 % 1010,5 hPa 0,0 l/m 5,4 km/h (1 Bft) S-SW 202 -5,6 C -6,2 C
26.01.2013 23:11 -3,9 C 88 % 1010,6 hPa 0,0 l/m 4,3 km/h (1 Bft) S-SW 202 -5,6 C -3,9 C
26.01.2013 23:16 -3,8 C 88 % 1010,4 hPa 0,0 l/m 11,2 km/h (2 Bft) SW 225 -5,5 C -8,2 C
26.01.2013 23:21 -3,8 C 88 % 1010,4 hPa 0,0 l/m 9,0 km/h (2 Bft) W-SW 247 -5,5 C -7,5 C
26.01.2013 23:26 -3,8 C 88 % 1010,3 hPa 0,0 l/m 8,6 km/h (2 Bft) W-SW 247 -5,5 C -7,4 C
26.01.2013 23:31 -3,7 C 89 % 1010,5 hPa 0,0 l/m 4,7 km/h (1 Bft) S 180 -5,2 C -5,6 C
26.01.2013 23:36 -3,7 C 89 % 1010,4 hPa 0,0 l/m 2,2 km/h (1 Bft) S-SW 202 -5,2 C -3,7 C
26.01.2013 23:41 -3,7 C 89 % 1010,5 hPa 0,0 l/m 7,2 km/h (2 Bft) W-SW 247 -5,2 C -6,8 C
26.01.2013 23:46 -3,6 C 89 % 1010,5 hPa 0,0 l/m 14,8 km/h (3 Bft) S-SW 202 -5,1 C -8,8 C
26.01.2013 23:51 -3,6 C 89 % 1010,3 hPa 0,0 l/m 12,6 km/h (3 Bft) S-SW 202 -5,1 C -8,3 C
26.01.2013 23:56 -3,5 C 89 % 1010,6 hPa 0,0 l/m 22,7 km/h (4 Bft) W-SW 247 -5,0 C -10,1 C
_ Min-Zeit 08:21 15:01 23:26 - 00:11 - - 08:21 08:41
Minimum _ -12,1 C 80 % 1010,3 hPa - 0,0 km/h (0 Bft) - - -13,9 C -18,4 C
_ Max-Zeit 23:56 23:31 00:06 00:01 23:56 - - 23:56 23:36
Maximum _ -3,5 C 89 % 1020,1 hPa 0,0 l/m 22,7 km/h
W-SW (4 Bft)
- - -5,0 C -3,7 C
Durchschnitt _ -7,9 C 85 % 1014,6 hPa #0,0 l/m 5,6 km/h (1 Bft) SO - -9,9 C -10,0 C
(c) by David Heller